METAR KLBT 192354Z AUTO 02004KT 4SM RA BR BKN008 BKN014 OVC047 03/03 A3013 RMK AO2 RAE13B42UPB13E15B40E42 SLP203 P0003 60058 T00280028 10039 20028 53008 
SPECI KLBT 192324Z AUTO 36007KT 8SM BKN008 OVC013 03/02 A3012 RMK AO2 RAE13UPB13E15 CIG 004V012 P0001 
SPECI KLBT 192308Z AUTO 01007KT 6SM -RA BR BKN006 OVC011 03/02 A3010 RMK AO2 CIG 004V010 P0001 
METAR KLBT 192254Z AUTO 36005KT 5SM -RA BR OVC008 03/03 A3011 RMK AO2 CIG 004V010 SLP197 P0007 T00280028 
SPECI KLBT 192212Z AUTO 03006KT 4SM RA BR OVC008 03/02 A3012 RMK AO2 CIG 004V012 P0003 
METAR KLBT 192154Z AUTO 36007G16KT 4SM RA BR BKN006 OVC010 03/03 A3010 RMK AO2 PRESRR SLP193 P0010 T00280028 
SPECI KLBT 192142Z AUTO 02011KT 4SM -RA BR BKN008 OVC026 03/03 A3007 RMK AO2 P0009 
SPECI KLBT 192134Z AUTO 03010KT 2 1/2SM RA BR BKN008 OVC026 03/03 A3008 RMK AO2 PRESFR P0008 
SPECI KLBT 192105Z AUTO 04005KT 3SM RA BR BKN008 OVC022 03/03 A3013 RMK AO2 P0003 
METAR KLBT 192054Z AUTO 05008KT 2 1/2SM +RA BR BKN008 OVC027 03/02 A3011 RMK AO2 PRESFR SLP195 P0013 60038 T00280022 58015 
SPECI KLBT 192040Z AUTO 03008KT 4SM RA BR BKN008 OVC036 03/03 A3013 RMK AO2 P0009 
METAR KLBT 191954Z AUTO 03007KT 3SM RA BR FEW006 BKN014 OVC030 03/03 A3013 RMK AO2 SLP203 P0014 T00330028 
SPECI KLBT 191931Z AUTO 02009KT 4SM RA BR FEW008 BKN014 OVC049 03/02 A3015 RMK AO2 P0010 
SPECI KLBT 191921Z AUTO 01008KT 3SM RA BR SCT010 OVC016 03/03 A3016 RMK AO2 P0008 
SPECI KLBT 191914Z AUTO 02008KT 2 1/2SM RA BR BKN010 OVC016 03/03 A3015 RMK AO2 P0006 
SPECI KLBT 191907Z AUTO 02010KT 2SM +RA BR FEW009 OVC015 03/03 A3014 RMK AO2 P0004 
SPECI KLBT 191859Z AUTO 01009KT 2 1/2SM RA BR FEW009 BKN013 OVC017 04/03 A3014 RMK AO2 P0001 
SPECI KLBT 191857Z AUTO 01009KT 3SM RA BR BKN009 OVC017 04/03 A3015 RMK AO2 CIG 006V012 P0001 
METAR KLBT 191854Z AUTO 36008KT 3SM RA BR SCT009 OVC015 04/03 A3015 RMK AO2 SLP208 P0011 T00390028 
SPECI KLBT 191844Z AUTO 01007KT 2 1/2SM RA BR FEW009 BKN014 OVC020 04/03 A3015 RMK AO2 PRESRR P0009 
SPECI KLBT 191822Z AUTO 02009KT 2 1/2SM RA BR FEW009 OVC017 04/03 A3012 RMK AO2 P0004 
SPECI KLBT 191800Z AUTO 04009KT 3SM RA BR FEW009 BKN013 OVC018 04/03 A3014 RMK AO2 P0001 
METAR KLBT 191754Z AUTO 03006KT 3SM RA BR SCT011 BKN018 OVC028 04/03 A3015 RMK AO2 SLP210 P0007 60021 T00390033 10056 20039 58008 
SPECI KLBT 191737Z AUTO 05006KT 2 1/2SM RA BR FEW013 SCT019 OVC028 04/03 A3016 RMK AO2 PRESFR P0005 
METAR KLBT 191654Z AUTO 02008KT 4SM -RA BR FEW015 OVC043 04/03 A3021 RMK AO2 SLP230 P0005 T00440028 
METAR KLBT 191554Z AUTO 01007KT 3SM RA BR OVC040 04/03 A3022 RMK AO2 SLP234 P0005 T00440033 
METAR KLBT 191454Z AUTO 03008KT 6SM -RA BR OVC040 06/03 A3018 RMK AO2 SLP218 P0002 60004 T00560033 56002 
METAR KLBT 191354Z AUTO 01006KT 5SM -RA BR OVC042 06/04 A3018 RMK AO2 RAB27 SLP220 P0000 T00560039 
METAR KLBT 191254Z AUTO 02006KT 5SM BR OVC042 05/04 A3017 RMK AO2 RAB1156E44 SLP215 P0002 T00500039 
METAR KLBT 191154Z AUTO 36004KT 6SM BR OVC042 05/04 A3018 RMK AO2 SLP220 60005 70008 T00500039 10050 20044 55001 
METAR KLBT 191054Z AUTO 02005KT 7SM OVC046 04/03 A3015 RMK AO2 RAE12 PRESFR SLP211 P0000 T00440033 
METAR KLBT 190954Z AUTO 34006KT 6SM -RA BR OVC044 04/04 A3018 RMK AO2 RAE00B39 SLP220 P0000 T00440039 
METAR KLBT 190854Z AUTO 33006KT 7SM -RA SCT050 OVC060 04/04 A3018 RMK AO2 SLP221 P0002 60005 T00440039 56004 
METAR KLBT 190754Z AUTO 33006KT 6SM -RA BR OVC065 05/04 A3019 RMK AO2 SLP222 P0001 T00500039 
METAR KLBT 190654Z AUTO 32006KT 6SM -RA BR BKN060 OVC080 05/03 A3019 RMK AO2 RAB01 SLP223 P0002 T00500033 
METAR KLBT 190554Z AUTO 31006KT 7SM BKN070 OVC090 05/04 A3020 RMK AO2 RAE37 SLP225 P0001 60003 T00500039 10067 20050 55005 
METAR KLBT 190454Z AUTO 26003KT 7SM -RA BKN085 06/04 A3018 RMK AO2 RAB49 SLP220 P0000 T00560039 400890022 
METAR KLBT 190354Z AUTO 00000KT 8SM SCT085 06/03 A3017 RMK AO2 SLP215 T00560033 
METAR KLBT 190254Z AUTO 21003KT 6SM BR SCT075 BKN100 05/04 A3021 RMK AO2 RAE18 SLP230 P0000 60002 T00500044 58003 
METAR KLBT 190154Z AUTO 25003KT 7SM -RA FEW060 SCT100 06/04 A3023 RMK AO2 SLP235 P0001 T00560039 
METAR KLBT 190054Z AUTO 00000KT 8SM -RA SCT065 OVC090 06/03 A3022 RMK AO2 RAB01 SLP235 P0001 T00610033 
METAR KLBT 182354Z AUTO 31004KT 10SM BKN070 OVC095 07/03 A3022 RMK AO2 RAB35E47 SLP233 P0000 60000 T00670028 10089 20067 53005 
METAR KLBT 182254Z AUTO 00000KT 10SM BKN095 07/01 A3019 RMK AO2 SLP223 T00720006 
METAR KLBT 182154Z AUTO 01005KT 10SM CLR 08/M02 A3020 RMK AO2 SLP225 T00781017 
METAR KLBT 182054Z AUTO 33005KT 10SM CLR 08/M02 A3020 RMK AO2 SLP228 T00831017 58004 
METAR KLBT 181954Z AUTO 01004KT 10SM CLR 08/M02 A3022 RMK AO2 SLP232 T00831017 
METAR KLBT 181854Z AUTO 36004KT 10SM CLR 08/M02 A3022 RMK AO2 SLP232 T00831017 
METAR KLBT 181754Z AUTO 03005KT 10SM CLR 08/M03 A3021 RMK AO2 SLP231 T00831028 10083 20022 58023 
METAR KLBT 181654Z AUTO 04006KT 10SM CLR 08/M02 A3025 RMK AO2 SLP245 T00781022 
METAR KLBT 181554Z AUTO 05008KT 10SM CLR 08/M02 A3028 RMK AO2 SLP253 T00781022 
METAR KLBT 181554Z AUTO 05008KT 10SM CLR 08/M02 A3028 RMK AO2 SLP253 T00781022 
METAR KLBT 181454Z AUTO 03011KT 10SM CLR 07/M03 A3028 RMK AO2 SLP254 T00671028 50013 
METAR KLBT 181354Z AUTO 04010KT 10SM CLR 05/M04 A3029 RMK AO2 SLP257 T00501039 
METAR KLBT 181254Z AUTO 01008KT 10SM CLR 03/M03 A3027 RMK AO2 SLP251 T00281028 
METAR KLBT 181054Z AUTO 02006KT 10SM CLR 03/M03 A3022 RMK AO2 SLP234 T00281033 
METAR KLBT 180954Z AUTO 03007KT 10SM CLR 03/M03 A3020 RMK AO2 SLP227 T00281028 
METAR KLBT 180854Z AUTO 02006KT 10SM CLR 04/M02 A3020 RMK AO2 SLP227 T00391022 51023 
METAR KLBT 180754Z AUTO 01008KT 10SM CLR 05/M01 A3018 RMK AO2 SLP220 T00501006 
METAR KLBT 180654Z AUTO 36008KT 10SM CLR 06/01 A3017 RMK AO2 SLP216 T00560006 
METAR KLBT 180554Z AUTO 36009KT 10SM CLR 07/02 A3014 RMK AO2 SLP205 60001 T00670017 10106 20067 51017 
METAR KLBT 180454Z AUTO 34006KT 10SM CLR 08/05 A3012 RMK AO2 SLP198 T00780050 401280072 
METAR KLBT 180354Z AUTO 32006KT 6SM BR CLR 08/07 A3010 RMK AO2 SLP194 P0001 T00780072 
METAR KLBT 180254Z AUTO 31004KT 4SM BR CLR 08/08 A3008 RMK AO2 SLP187 T00830078 51025 
METAR KLBT 180154Z AUTO 26004KT 4SM BR CLR 08/08 A3007 RMK AO2 SLP181 T00830078 
METAR KLBT 180054Z AUTO 26004KT 6SM BR CLR 09/08 A3003 RMK AO2 SLP170 T00890083 
METAR KLBT 172354Z AUTO 27004KT 8SM CLR 11/09 A3001 RMK AO2 SLP162 T01060089 10128 20100 51028 
METAR KLBT 172254Z AUTO 26004KT 9SM CLR 11/09 A2998 RMK AO2 SLP151 T01060094 
METAR KLBT 172154Z AUTO 28005KT 9SM CLR 12/09 A2997 RMK AO2 SLP147 T01170094 
METAR KLBT 172054Z AUTO 29006KT 10SM CLR 12/09 A2993 RMK AO2 SLP134 T01220094 53013 
SPECI KLBT 172043Z AUTO 28005KT 10SM SCT018 12/09 A2992 RMK AO2 
METAR KLBT 171954Z AUTO 29010KT 10SM OVC016 12/10 A2991 RMK AO2 SLP128 T01220100 
SPECI KLBT 171943Z AUTO 29009KT 10SM OVC016 12/10 A2990 RMK AO2 
METAR KLBT 171854Z AUTO 28008KT 9SM OVC012 12/10 A2989 RMK AO2 SLP122 T01220100 
METAR KLBT 171754Z AUTO 26011KT 10SM OVC014 13/11 A2989 RMK AO2 SLP121 60000 T01280106 10128 20089 56013 
SPECI KLBT 171701Z AUTO 28009KT 10SM BKN014 OVC022 13/11 A2989 RMK AO2 
SPECI KLBT 171701Z AUTO 28009KT 10SM BKN014 OVC022 13/11 A2989 RMK AO2 
METAR KLBT 171654Z AUTO 28010KT 10SM SCT014 OVC022 13/11 A2989 RMK AO2 SLP122 T01280106 
SPECI KLBT 171605Z AUTO 29009KT 9SM SCT012 OVC026 12/11 A2991 RMK AO2 
METAR KLBT 171554Z AUTO 28008KT 9SM BKN012 OVC028 12/11 A2992 RMK AO2 SLP131 T01220106 
SPECI KLBT 171543Z AUTO 29009KT 8SM SCT009 BKN028 12/11 A2993 RMK AO2 
SPECI KLBT 171543Z AUTO 29009KT 8SM SCT009 BKN028 12/11 A2993 RMK AO2 
SPECI KLBT 171526Z AUTO 28007KT 8SM FEW009 12/10 A2992 RMK AO2 
METAR KLBT 171454Z AUTO 26007KT 240V300 7SM SCT060 11/09 A2993 RMK AO2 SLP134 60000 T01060094 56003 
METAR KLBT 171454Z AUTO 26007KT 240V300 7SM SCT060 11/09 A2993 RMK AO2 SLP134 60000 T01060094 56003 
SPECI KLBT 171414Z AUTO 24006KT 6SM BR SCT021 OVC055 10/09 A2993 RMK AO2 
METAR KLBT 171354Z AUTO 24006KT 5SM BR OVC023 10/09 A2993 RMK AO2 RAE00 SLP136 P0000 T01000094 
SPECI KLBT 171342Z AUTO 22005KT 5SM BR BKN023 BKN028 OVC037 09/09 A2993 RMK AO2 RAE00 P0000 
SPECI KLBT 171302Z AUTO 23005KT 4SM BR FEW007 BKN038 OVC047 09/09 A2992 RMK AO2 RAE00 P0000 
METAR KLBT 171254Z AUTO 24004KT 2 1/2SM -RA BR FEW007 BKN041 OVC047 09/09 A2992 RMK AO2 RAB37 SLP133 P0000 T00890089 
SPECI KLBT 171208Z AUTO 26005KT 7SM FEW007 SCT012 OVC024 09/09 A2994 RMK AO2 
METAR KLBT 171154Z AUTO 27005KT 6SM BR FEW013 BKN022 OVC038 09/09 A2994 RMK AO2 RAB03E47 SLP137 P0002 60015 70015 T00890089 10122 20089 53010 
METAR KLBT 171054Z AUTO 00000KT 9SM BKN021 BKN028 OVC032 09/08 A2991 RMK AO2 RAE52 SLP129 P0005 T00890083 
METAR KLBT 170954Z AUTO VRB03KT 5SM RA BR BKN034 BKN070 OVC090 09/08 A2990 RMK AO2 SLP125 P0007 T00940078 
METAR KLBT 170854Z AUTO 29007KT 10SM -RA OVC095 10/07 A2990 RMK AO2 RAE0759B17 SLP125 P0001 60001 T01000067 56004 
METAR KLBT 170754Z AUTO 25004KT 10SM -RA BKN060 BKN090 OVC110 11/06 A2991 RMK AO2 RAB28 SLP125 P0000 T01060061 
METAR KLBT 170654Z AUTO 24007KT 10SM OVC100 12/04 A2991 RMK AO2 SLP127 T01170044 
METAR KLBT 170554Z AUTO 21005KT 10SM BKN120 12/04 A2991 RMK AO2 PRESFR SLP129 T01170039 10128 20111 56036 
METAR KLBT 170454Z AUTO 21007KT 10SM CLR 12/04 A2994 RMK AO2 SLP137 T01170044 401611011